Terminal Aerodrome Forecast
Issued by NWS

Home | Current Version | Previous Version | Text Only | Print | Product List | Glossary On
Versions: 1 2 3 4 5 6 7 8 9 10 11 12 13 14
000
FTUS44 KEPZ 250540
TAFDMN
TAF
KDMN 250540Z 2506/2606 33007KT P6SM FEW100 SCT200
     FM251200 04015G25KT P6SM SCT070 BKN200
     FM251600 06020G30KT P6SM SCT070 BKN200
     FM252200 08018G28KT P6SM BKN060 BKN150=

USA.gov is the U.S. government's official web portal to all federal, state and local government web resources and services.